Time;durP1;ratioP1;P1;durP2;ratioP2;P2;SDS_P1;SDS_P2;PMS_P1;PMS_P2;Temp;Humidity;BMP_temperature;BMP_pressure;BME280_temperature;BME280_humidity;BME280_pressure;Samples;Min_cycle;Max_cycle;Signal;HPM_P1;HPM_P2
2022/03/22 00:00:22;;;;;;;9.30;2.23;;;9.90;99.90;;;;;;5012442;28;20604;-70
2022/03/22 00:02:48;;;;;;;1.33;1.23;;;9.90;99.90;;;;;;5012510;28;20908;-71
2022/03/22 00:05:15;;;;;;;1.23;1.00;;;9.80;99.90;;;;;;5012325;28;20514;-71
2022/03/22 00:07:41;;;;;;;1.87;1.23;;;9.70;99.90;;;;;;5011745;28;20164;-70
2022/03/22 00:10:08;;;;;;;3.93;0.80;;;9.70;99.90;;;;;;5012122;28;20407;-70
2022/03/22 00:12:35;;;;;;;1.83;1.60;;;9.60;99.90;;;;;;5012273;28;20445;-71
2022/03/22 00:15:02;;;;;;;4.90;4.43;;;9.50;99.90;;;;;;5012238;28;20423;-71
2022/03/22 00:17:27;;;;;;;1.50;1.40;;;9.50;99.90;;;;;;5012269;28;20904;-71
2022/03/22 00:19:53;;;;;;;2.10;1.07;;;9.40;99.90;;;;;;5011968;28;20518;-70
2022/03/22 00:22:19;;;;;;;1.23;0.73;;;9.40;99.90;;;;;;5012286;28;20168;-70
2022/03/22 00:24:44;;;;;;;4.03;1.63;;;9.30;99.90;;;;;;5012221;28;20423;-70
2022/03/22 00:27:10;;;;;;;1.00;0.90;;;9.20;99.90;;;;;;5012229;28;20173;-71
2022/03/22 00:29:36;;;;;;;0.80;0.60;;;9.10;99.90;;;;;;5011871;28;20175;-70
2022/03/22 00:32:02;;;;;;;1.43;1.33;;;9.10;99.90;;;;;;5012459;28;20283;-70
2022/03/22 00:34:28;;;;;;;1.10;1.00;;;9.10;99.90;;;;;;5012075;28;20423;-70
2022/03/22 00:36:58;;;;;;;1.93;1.63;;;9.00;99.90;;;;;;5012091;28;20819;-70
2022/03/22 00:39:24;;;;;;;4.33;2.67;;;9.00;99.90;;;;;;5011931;28;20156;-71
2022/03/22 00:41:50;;;;;;;4.87;1.07;;;8.90;99.90;;;;;;5012089;28;20415;-70
2022/03/22 00:44:17;;;;;;;2.40;2.30;;;8.90;99.90;;;;;;5011926;28;20427;-70
2022/03/22 00:46:42;;;;;;;1.97;1.77;;;8.80;99.90;;;;;;5012042;28;20776;-70
2022/03/22 00:49:08;;;;;;;1.00;0.90;;;8.80;99.90;;;;;;5011745;28;20494;-70
2022/03/22 00:51:34;;;;;;;1.03;0.93;;;8.80;99.90;;;;;;5012119;28;20171;-70
2022/03/22 00:54:02;;;;;;;3.77;1.77;;;8.70;99.90;;;;;;5011678;28;20295;-71
2022/03/22 00:56:28;;;;;;;0.80;0.60;;;8.70;99.90;;;;;;5012120;28;20172;-70
2022/03/22 01:00:01;;;;;;;1.40;1.30;;;8.60;99.90;;;;;;5011631;28;20444;-70
2022/03/22 01:01:40;;;;;;;2.40;2.20;;;8.60;99.90;;;;;;5011853;28;20572;-71
2022/03/22 01:04:06;;;;;;;0.90;0.73;;;8.50;99.90;;;;;;5011683;28;20455;-70
2022/03/22 01:06:33;;;;;;;2.17;1.97;;;8.50;99.90;;;;;;5010697;28;20909;-70
2022/03/22 01:08:59;;;;;;;1.57;1.47;;;8.50;99.90;;;;;;5011153;28;20964;-70
2022/03/22 01:11:25;;;;;;;1.47;1.37;;;8.50;99.90;;;;;;5011629;28;20403;-71
2022/03/22 01:13:50;;;;;;;1.63;1.50;;;8.40;99.90;;;;;;5011528;28;20462;-70
2022/03/22 01:16:16;;;;;;;1.47;1.23;;;8.40;99.90;;;;;;5011795;28;20175;-71
2022/03/22 01:18:42;;;;;;;3.63;3.43;;;8.40;99.90;;;;;;5013264;28;20172;-70
2022/03/22 01:21:08;;;;;;;1.90;1.80;;;8.40;99.90;;;;;;5015407;28;20165;-70
2022/03/22 01:23:33;;;;;;;1.90;1.80;;;8.30;99.90;;;;;;5015223;28;20407;-70
2022/03/22 01:25:59;;;;;;;1.20;0.77;;;8.30;99.90;;;;;;5015331;28;20176;-70
2022/03/22 01:28:26;;;;;;;4.87;1.03;;;8.30;99.90;;;;;;5014876;28;20169;-71
2022/03/22 01:30:52;;;;;;;0.80;0.70;;;8.30;99.90;;;;;;5015310;28;20207;-71
2022/03/22 01:33:18;;;;;;;4.53;3.00;;;8.20;99.90;;;;;;5015080;28;20486;-70
2022/03/22 01:35:44;;;;;;;8.63;2.30;;;8.20;99.90;;;;;;5014989;28;20188;-70
2022/03/22 01:38:10;;;;;;;1.00;0.90;;;8.20;99.90;;;;;;5014871;28;20167;-70
2022/03/22 01:40:37;;;;;;;1.00;0.90;;;8.20;99.90;;;;;;5014974;28;20491;-71
2022/03/22 01:43:03;;;;;;;1.23;1.03;;;8.20;99.90;;;;;;5014912;28;21023;-70
2022/03/22 01:45:28;;;;;;;3.60;1.77;;;8.10;99.90;;;;;;5014848;28;20505;-70
2022/03/22 01:47:58;;;;;;;1.20;0.80;;;8.10;99.90;;;;;;5014952;28;20495;-70
2022/03/22 01:50:23;;;;;;;2.30;1.30;;;8.10;99.90;;;;;;5014501;28;20164;-70
2022/03/22 01:52:50;;;;;;;1.43;1.30;;;8.00;99.90;;;;;;5014786;28;21007;-70
2022/03/22 01:55:18;;;;;;;2.60;1.10;;;8.00;99.90;;;;;;5014425;28;20573;-70
2022/03/22 01:57:44;;;;;;;1.70;1.57;;;8.00;99.90;;;;;;5014612;28;20434;-70
2022/03/22 02:00:13;;;;;;;3.23;1.70;;;8.00;99.90;;;;;;5014209;28;20404;-70
2022/03/22 02:08:11;;;;;;;1.70;1.60;;;7.90;99.90;;;;;;5014749;28;20414;-70
2022/03/22 02:10:38;;;;;;;3.37;1.57;;;7.90;99.90;;;;;;5014403;28;20407;-71
2022/03/22 02:13:04;;;;;;;3.80;0.90;;;7.90;99.90;;;;;;5014362;28;20455;-70
2022/03/22 02:15:31;;;;;;;3.33;1.03;;;7.90;99.90;;;;;;5014269;28;20438;-70
2022/03/22 02:17:57;;;;;;;0.93;0.83;;;7.90;99.90;;;;;;5014405;28;20410;-70
2022/03/22 02:20:23;;;;;;;1.50;1.40;;;7.90;99.90;;;;;;5013913;28;20404;-70
2022/03/22 02:23:10;;;;;;;3.27;2.83;;;7.90;99.90;;;;;;5014297;28;20742;-70
2022/03/22 02:25:35;;;;;;;2.13;2.03;;;7.80;99.90;;;;;;5014075;28;20345;-70
2022/03/22 02:28:05;;;;;;;3.50;2.10;;;7.80;99.90;;;;;;5014150;28;20948;-70
2022/03/22 02:30:32;;;;;;;6.73;2.13;;;7.80;99.90;;;;;;5013114;28;20207;-71
2022/03/22 02:33:01;;;;;;;2.37;1.20;;;7.70;99.90;;;;;;5014038;28;20516;-70
2022/03/22 02:35:28;;;;;;;4.20;1.70;;;7.70;99.90;;;;;;5013780;28;20488;-70
2022/03/22 02:37:54;;;;;;;1.97;1.87;;;7.70;99.90;;;;;;5014010;28;20407;-70
2022/03/22 02:40:20;;;;;;;2.30;2.10;;;7.70;99.90;;;;;;5012327;28;20442;-70
2022/03/22 02:42:49;;;;;;;4.07;1.53;;;7.60;99.90;;;;;;5012547;28;20430;-70
2022/03/22 02:45:15;;;;;;;0.77;0.67;;;7.60;99.90;;;;;;5013754;28;20199;-70
2022/03/22 02:47:42;;;;;;;1.03;0.73;;;7.50;99.90;;;;;;5013789;28;20407;-70
2022/03/22 02:50:09;;;;;;;0.70;0.60;;;7.50;99.90;;;;;;5013456;28;20408;-70
2022/03/22 02:52:35;;;;;;;2.57;1.43;;;7.40;99.90;;;;;;5013588;28;20451;-70
2022/03/22 02:55:02;;;;;;;2.13;1.40;;;7.40;99.90;;;;;;5013482;28;21022;-70
2022/03/22 02:57:28;;;;;;;1.73;1.63;;;7.40;99.90;;;;;;5013466;28;20426;-70
2022/03/22 02:59:53;;;;;;;1.90;1.37;;;7.30;99.90;;;;;;5013382;28;20870;-70
2022/03/22 03:02:19;;;;;;;1.20;1.10;;;7.30;99.90;;;;;;5013317;28;20186;-69
2022/03/22 03:04:44;;;;;;;0.80;0.60;;;7.20;99.90;;;;;;5013173;28;20192;-69
2022/03/22 03:07:10;;;;;;;2.20;1.77;;;7.20;99.90;;;;;;5013371;28;20168;-69
2022/03/22 03:09:35;;;;;;;0.97;0.87;;;7.20;99.90;;;;;;5013101;28;20641;-69
2022/03/22 03:12:01;;;;;;;1.73;1.63;;;7.10;99.90;;;;;;5013124;28;20208;-69
2022/03/22 03:14:38;;;;;;;1.13;1.03;;;7.10;99.90;;;;;;5013211;28;20188;-69
2022/03/22 03:17:09;;;;;;;4.97;1.40;;;7.10;99.90;;;;;;5013147;28;20529;-69
2022/03/22 03:19:35;;;;;;;2.10;2.00;;;7.00;99.90;;;;;;5012963;28;20486;-69
2022/03/22 03:22:03;;;;;;;0.93;0.77;;;7.00;99.90;;;;;;5013180;28;20843;-69
2022/03/22 03:24:28;;;;;;;1.40;1.00;;;7.00;99.90;;;;;;5013051;28;20683;-69
2022/03/22 03:26:54;;;;;;;0.97;0.60;;;7.00;99.90;;;;;;5013021;28;20415;-70
2022/03/22 03:29:20;;;;;;;1.00;0.70;;;7.00;99.90;;;;;;5012799;28;20194;-69
2022/03/22 03:31:47;;;;;;;3.77;3.47;;;7.00;99.90;;;;;;5012931;28;20798;-70
2022/03/22 03:34:12;;;;;;;1.40;1.00;;;7.00;99.90;;;;;;5012837;28;20279;-69
2022/03/22 03:36:38;;;;;;;3.83;2.50;;;7.00;99.90;;;;;;5012987;28;20494;-69
2022/03/22 03:39:04;;;;;;;5.37;1.97;;;6.90;99.90;;;;;;5012551;28;20176;-70
2022/03/22 03:47:04;;;;;;;1.30;1.03;;;6.90;99.90;;;;;;5012904;28;20426;-70
2022/03/22 03:49:50;;;;;;;1.10;0.97;;;6.80;99.90;;;;;;5012424;28;20419;-69
2022/03/22 03:52:25;;;;;;;0.77;0.60;;;6.80;99.90;;;;;;5012377;28;20843;-70
2022/03/22 03:54:52;;;;;;;1.20;0.90;;;6.80;99.90;;;;;;5012398;28;20450;-69
2022/03/22 03:57:18;;;;;;;2.60;1.90;;;6.70;99.90;;;;;;5012708;28;20868;-69
2022/03/22 03:59:44;;;;;;;1.83;1.73;;;6.70;99.90;;;;;;5012278;28;20411;-70
2022/03/22 04:02:10;;;;;;;1.43;1.33;;;6.70;99.90;;;;;;5012680;28;20445;-69
2022/03/22 04:04:37;;;;;;;1.40;1.03;;;6.80;99.90;;;;;;5012576;28;20692;-70
2022/03/22 04:07:07;;;;;;;2.87;2.77;;;6.80;99.90;;;;;;5012461;28;20426;-69
2022/03/22 04:09:34;;;;;;;2.00;1.03;;;6.80;99.90;;;;;;5011985;28;20421;-69
2022/03/22 04:12:00;;;;;;;1.30;1.17;;;6.80;99.90;;;;;;5012346;28;20498;-69
2022/03/22 04:14:26;;;;;;;1.67;1.57;;;6.80;99.90;;;;;;5012051;28;20506;-68
2022/03/22 04:16:52;;;;;;;2.23;1.47;;;6.80;99.90;;;;;;5012352;28;20192;-69
2022/03/22 04:19:17;;;;;;;1.27;1.17;;;6.80;99.90;;;;;;5011873;28;20920;-69
2022/03/22 04:21:43;;;;;;;1.77;1.67;;;6.80;99.90;;;;;;5011141;28;20172;-69
2022/03/22 04:24:11;;;;;;;2.13;1.80;;;6.70;99.90;;;;;;5012200;28;20176;-69
2022/03/22 04:26:39;;;;;;;3.53;1.73;;;6.70;99.90;;;;;;5012150;28;20410;-69
2022/03/22 04:34:38;;;;;;;1.63;1.53;;;6.70;99.90;;;;;;5012330;28;20788;-69
2022/03/22 04:37:05;;;;;;;0.80;0.70;;;6.70;99.90;;;;;;5012150;28;20435;-69
2022/03/22 04:39:30;;;;;;;1.13;1.03;;;6.70;99.90;;;;;;5011724;28;20438;-69
2022/03/22 04:41:57;;;;;;;1.83;1.73;;;6.70;99.90;;;;;;5010891;28;20419;-69
2022/03/22 04:44:27;;;;;;;0.93;0.83;;;6.70;99.90;;;;;;5011725;28;20212;-69
2022/03/22 04:46:53;;;;;;;1.50;1.40;;;6.70;99.90;;;;;;5012197;28;20423;-69
2022/03/22 04:49:20;;;;;;;0.80;0.70;;;6.60;99.90;;;;;;5011616;28;20407;-69
2022/03/22 04:57:14;;;;;;;1.47;0.97;;;6.70;99.90;;;;;;5015910;28;20442;-69
2022/03/22 04:59:39;;;;;;;1.80;1.63;;;6.70;99.90;;;;;;5015482;28;20473;-69
2022/03/22 05:02:05;;;;;;;1.20;1.10;;;6.60;99.90;;;;;;5015764;28;20777;-69
2022/03/22 05:04:30;;;;;;;4.00;1.90;;;6.60;99.90;;;;;;5015591;28;20195;-69
2022/03/22 05:06:56;;;;;;;1.43;1.13;;;6.60;99.90;;;;;;5015756;28;20180;-69
2022/03/22 05:09:24;;;;;;;0.80;0.70;;;6.60;99.90;;;;;;5015450;28;20172;-69
2022/03/22 05:11:50;;;;;;;1.47;1.37;;;6.60;99.90;;;;;;5015499;28;20180;-70
2022/03/22 05:14:16;;;;;;;1.37;0.93;;;6.60;99.90;;;;;;5015442;28;20789;-69
2022/03/22 05:16:41;;;;;;;0.80;0.60;;;6.50;99.90;;;;;;5015456;28;20263;-69
2022/03/22 05:19:07;;;;;;;2.17;1.97;;;6.50;99.90;;;;;;5015158;28;20494;-69
2022/03/22 05:21:33;;;;;;;1.03;0.93;;;6.50;99.90;;;;;;5015382;28;20191;-69
2022/03/22 05:23:59;;;;;;;0.77;0.57;;;6.50;99.90;;;;;;5015388;28;20196;-69
2022/03/22 05:26:27;;;;;;;2.43;2.33;;;6.50;99.90;;;;;;5015517;28;20880;-69
2022/03/22 05:28:53;;;;;;;1.67;1.57;;;6.50;99.90;;;;;;5013892;28;20259;-69
2022/03/22 05:31:21;;;;;;;3.80;1.73;;;6.50;99.90;;;;;;5015235;28;20411;-69
2022/03/22 05:33:48;;;;;;;1.20;1.10;;;6.50;99.90;;;;;;5015102;28;20505;-69
2022/03/22 05:36:13;;;;;;;1.03;0.90;;;6.50;99.90;;;;;;5015132;28;20403;-69
2022/03/22 05:38:39;;;;;;;1.10;0.73;;;6.60;99.90;;;;;;5014839;28;20434;-69
2022/03/22 05:41:06;;;;;;;2.00;1.90;;;6.60;99.90;;;;;;5015141;28;20294;-69
2022/03/22 05:43:32;;;;;;;0.70;0.60;;;6.60;99.90;;;;;;5015262;28;20689;-69
2022/03/22 05:45:58;;;;;;;2.20;2.10;;;6.60;99.90;;;;;;5015037;28;20550;-69
2022/03/22 05:48:24;;;;;;;0.80;0.80;;;6.70;99.90;;;;;;5015045;28;20183;-69
2022/03/22 05:50:50;;;;;;;1.43;1.33;;;6.70;99.90;;;;;;5014672;28;20407;-69
2022/03/22 05:53:16;;;;;;;1.57;1.47;;;6.70;99.90;;;;;;5014826;28;20462;-69
2022/03/22 05:55:42;;;;;;;1.43;1.33;;;6.70;99.90;;;;;;5014710;28;20478;-69
2022/03/22 05:58:08;;;;;;;5.63;1.60;;;6.80;99.90;;;;;;5014787;28;20407;-69
2022/03/22 06:00:35;;;;;;;0.80;0.70;;;6.80;99.90;;;;;;5014547;28;20486;-69
2022/03/22 06:03:01;;;;;;;3.03;1.30;;;6.90;99.90;;;;;;5014690;28;20411;-69
2022/03/22 06:05:28;;;;;;;0.90;0.70;;;7.00;99.90;;;;;;5013455;28;20443;-69
2022/03/22 06:07:55;;;;;;;2.87;2.53;;;7.10;99.90;;;;;;5014666;28;20404;-69
2022/03/22 06:10:20;;;;;;;3.20;3.00;;;7.20;99.90;;;;;;5014409;28;20416;-69
2022/03/22 06:12:47;;;;;;;6.20;1.80;;;7.30;99.90;;;;;;5012982;28;20458;-69
2022/03/22 06:15:18;;;;;;;0.70;0.60;;;7.50;99.90;;;;;;5014386;28;20518;-69
2022/03/22 06:17:49;;;;;;;2.60;1.73;;;7.60;99.90;;;;;;5014454;28;20415;-69
2022/03/22 06:20:16;;;;;;;2.80;2.60;;;7.80;99.90;;;;;;5014156;28;20403;-69
2022/03/22 06:22:42;;;;;;;2.00;1.77;;;8.00;99.90;;;;;;5014091;28;20806;-69
2022/03/22 06:25:09;;;;;;;5.93;1.47;;;8.10;99.90;;;;;;5014277;28;20510;-69
2022/03/22 06:27:35;;;;;;;4.53;1.20;;;8.30;99.90;;;;;;5014106;28;20165;-69
2022/03/22 06:30:08;;;;;;;4.97;1.67;;;8.50;99.90;;;;;;5013823;28;20486;-69
2022/03/22 06:32:45;;;;;;;2.50;2.10;;;8.60;99.90;;;;;;5014111;28;20925;-69
2022/03/22 06:35:15;;;;;;;1.03;0.93;;;8.60;99.90;;;;;;5014001;28;20446;-69
2022/03/22 06:37:41;;;;;;;3.57;1.43;;;8.80;99.90;;;;;;5013967;28;20421;-69
2022/03/22 06:40:07;;;;;;;4.10;1.67;;;8.80;99.90;;;;;;5013735;28;20776;-69
2022/03/22 06:42:34;;;;;;;2.40;2.03;;;8.90;99.90;;;;;;5012641;28;20172;-69
2022/03/22 06:44:59;;;;;;;0.80;0.73;;;8.90;99.90;;;;;;5013952;28;20491;-70
2022/03/22 06:47:25;;;;;;;0.90;0.70;;;9.00;99.90;;;;;;5013895;28;20431;-69
2022/03/22 06:49:50;;;;;;;1.43;1.33;;;9.00;99.90;;;;;;5013567;28;20716;-69
2022/03/22 06:52:16;;;;;;;1.33;1.20;;;9.00;99.90;;;;;;5013930;28;20192;-69
2022/03/22 06:54:41;;;;;;;2.10;1.27;;;9.10;99.90;;;;;;5013111;28;20199;-70
2022/03/22 06:57:07;;;;;;;3.00;2.80;;;9.20;99.90;;;;;;5012411;28;20164;-70
2022/03/22 06:59:34;;;;;;;2.57;1.70;;;9.30;99.90;;;;;;5013361;28;20164;-70
2022/03/22 07:02:00;;;;;;;2.10;1.13;;;9.30;99.90;;;;;;5013604;28;20175;-70
2022/03/22 07:04:25;;;;;;;1.03;0.97;;;9.40;99.90;;;;;;5013375;28;20936;-70
2022/03/22 07:06:51;;;;;;;1.40;1.30;;;9.50;99.90;;;;;;5012082;28;20176;-70
2022/03/22 07:09:18;;;;;;;1.33;0.97;;;9.60;99.90;;;;;;5013076;28;20167;-70
2022/03/22 07:11:49;;;;;;;1.70;1.60;;;9.70;99.90;;;;;;5013371;28;20161;-70
2022/03/22 07:14:19;;;;;;;2.70;1.40;;;9.80;99.90;;;;;;5013241;28;20932;-70
2022/03/22 07:16:47;;;;;;;1.50;1.27;;;10.00;99.90;;;;;;5012908;28;20904;-70
2022/03/22 07:19:16;;;;;;;0.90;0.80;;;10.20;99.90;;;;;;5012996;28;20399;-70
2022/03/22 07:21:42;;;;;;;2.47;1.73;;;10.40;99.90;;;;;;5013026;28;20399;-70
2022/03/22 07:24:09;;;;;;;12.53;4.13;;;10.80;99.90;;;;;;5013123;28;20434;-70
2022/03/22 07:26:35;;;;;;;1.20;1.10;;;11.50;99.90;;;;;;5013129;28;20771;-71
2022/03/22 07:29:00;;;;;;;3.33;2.00;;;12.20;99.90;;;;;;5012668;28;20490;-71
2022/03/22 07:31:26;;;;;;;2.60;1.90;;;13.00;99.90;;;;;;5013037;28;20174;-71
2022/03/22 07:33:52;;;;;;;2.30;2.10;;;13.70;98.90;;;;;;5012802;28;20267;-71
2022/03/22 07:36:17;;;;;;;2.27;2.03;;;14.50;94.60;;;;;;5012934;28;20164;-71
2022/03/22 07:38:43;;;;;;;6.33;1.77;;;15.10;91.00;;;;;;5012647;28;20172;-70
2022/03/22 07:41:10;;;;;;;6.67;2.17;;;15.60;85.90;;;;;;5012791;28;20255;-70
2022/03/22 07:43:37;;;;;;;3.90;2.43;;;16.10;80.70;;;;;;5012687;28;20196;-71
2022/03/22 07:46:03;;;;;;;2.80;1.10;;;16.60;78.30;;;;;;5012783;28;20414;-70
2022/03/22 07:48:29;;;;;;;4.77;1.67;;;17.00;74.00;;;;;;5012751;28;20435;-70
2022/03/22 07:53:38;;;;;;;3.20;2.70;;;17.70;70.10;;;;;;5012577;28;20207;-70
2022/03/22 07:56:04;;;;;;;6.37;4.60;;;18.00;65.30;;;;;;5012681;28;20411;-70
2022/03/22 07:58:29;;;;;;;9.50;3.83;;;18.30;64.40;;;;;;5011259;28;20168;-70
2022/03/22 08:00:55;;;;;;;4.60;2.80;;;18.70;61.80;;;;;;5012315;28;20230;-71
2022/03/22 08:03:21;;;;;;;3.77;3.27;;;19.20;59.10;;;;;;5012392;28;20172;-71
2022/03/22 08:05:47;;;;;;;3.00;2.53;;;19.70;57.10;;;;;;5012267;28;20189;-70
2022/03/22 08:08:14;;;;;;;2.53;2.33;;;20.20;55.60;;;;;;5012441;28;20410;-71
2022/03/22 08:10:40;;;;;;;4.77;3.50;;;20.80;53.40;;;;;;5011989;28;20461;-71
2022/03/22 08:13:08;;;;;;;3.80;3.03;;;21.30;52.10;;;;;;5012268;28;20852;-71
2022/03/22 08:15:35;;;;;;;3.20;2.90;;;21.80;50.50;;;;;;5012732;28;20259;-71
2022/03/22 08:18:00;;;;;;;3.53;2.57;;;22.30;49.00;;;;;;5012221;28;20434;-71
2022/03/22 08:20:27;;;;;;;6.40;3.90;;;22.90;47.80;;;;;;5012000;28;20849;-71
2022/03/22 08:23:03;;;;;;;5.20;4.47;;;23.30;47.30;;;;;;5012220;28;20236;-69
2022/03/22 08:25:30;;;;;;;5.63;2.97;;;23.80;46.00;;;;;;5012259;28;20457;-69
2022/03/22 08:27:57;;;;;;;4.63;3.40;;;24.50;44.50;;;;;;5011494;28;20491;-68
2022/03/22 08:30:23;;;;;;;5.47;3.47;;;24.40;42.60;;;;;;5011890;28;20833;-69
2022/03/22 08:32:58;;;;;;;4.60;4.03;;;24.70;42.40;;;;;;5012089;28;21025;-69
2022/03/22 08:35:25;;;;;;;5.17;4.07;;;25.20;42.70;;;;;;5011945;28;20415;-68
2022/03/22 08:37:51;;;;;;;2.70;2.47;;;25.50;41.30;;;;;;5012089;28;20407;-69
2022/03/22 08:40:16;;;;;;;3.70;2.87;;;25.70;40.90;;;;;;5011718;28;20761;-69
2022/03/22 08:42:43;;;;;;;2.93;2.63;;;26.20;41.00;;;;;;5010804;28;20176;-69
2022/03/22 08:45:14;;;;;;;4.43;4.03;;;26.70;40.20;;;;;;5012012;28;20195;-69
2022/03/22 08:47:41;;;;;;;4.10;3.67;;;27.00;39.20;;;;;;5012108;28;20407;-69
2022/03/22 08:50:10;;;;;;;3.83;3.07;;;27.70;38.80;;;;;;5011770;28;20903;-69
2022/03/22 08:52:37;;;;;;;5.60;4.47;;;28.20;37.80;;;;;;5011864;28;20470;-69
2022/03/22 08:55:04;;;;;;;3.97;3.27;;;28.40;37.00;;;;;;5011870;28;20813;-69
2022/03/22 08:57:30;;;;;;;3.93;3.53;;;28.70;36.00;;;;;;5011897;28;20411;-69
2022/03/22 08:59:56;;;;;;;6.10;4.23;;;28.90;35.90;;;;;;5011687;28;20407;-69
2022/03/22 09:02:22;;;;;;;6.43;4.20;;;29.30;35.60;;;;;;5011892;28;20947;-69
2022/03/22 09:07:31;;;;;;;7.07;4.73;;;30.30;35.10;;;;;;5011836;28;20616;-69
2022/03/22 09:09:57;;;;;;;4.43;3.40;;;30.60;34.70;;;;;;5011484;28;20550;-69
2022/03/22 09:12:22;;;;;;;5.30;4.30;;;30.90;33.50;;;;;;5011599;28;20250;-69
2022/03/22 09:14:48;;;;;;;6.87;4.83;;;30.90;32.90;;;;;;5011603;28;20230;-69
2022/03/22 09:17:13;;;;;;;8.03;3.67;;;31.40;32.90;;;;;;5011702;28;20168;-69
2022/03/22 09:19:39;;;;;;;6.03;4.40;;;31.80;32.90;;;;;;5011407;28;20692;-69
2022/03/22 09:22:05;;;;;;;8.70;4.60;;;32.00;31.80;;;;;;5011621;28;20264;-69
2022/03/22 09:24:34;;;;;;;4.70;4.03;;;32.20;31.50;;;;;;5011548;28;20584;-70
2022/03/22 09:27:01;;;;;;;7.40;4.10;;;32.90;32.10;;;;;;5011608;28;20395;-70
2022/03/22 09:29:26;;;;;;;5.33;3.87;;;33.70;32.00;;;;;;5010121;28;20750;-70
2022/03/22 09:31:52;;;;;;;5.10;3.43;;;34.10;31.20;;;;;;5011595;28;20469;-70
2022/03/22 09:34:18;;;;;;;3.97;3.53;;;34.70;30.40;;;;;;5010200;28;20707;-70
2022/03/22 09:36:44;;;;;;;7.30;4.90;;;35.10;29.70;;;;;;5011563;28;20223;-70
2022/03/22 09:39:09;;;;;;;4.80;4.03;;;35.40;29.20;;;;;;5012392;28;20525;-70
2022/03/22 09:41:38;;;;;;;5.93;4.70;;;35.60;28.90;;;;;;5015207;28;20164;-70
2022/03/22 09:44:04;;;;;;;5.00;4.43;;;35.70;28.00;;;;;;5014988;28;20269;-70
2022/03/22 09:46:32;;;;;;;6.40;5.00;;;35.70;27.70;;;;;;5015060;28;20916;-70
2022/03/22 09:48:59;;;;;;;4.07;3.70;;;35.80;27.50;;;;;;5014777;28;20921;-70
2022/03/22 09:54:12;;;;;;;6.00;3.67;;;35.70;26.90;;;;;;5014670;28;20889;-70
2022/03/22 09:56:39;;;;;;;4.73;4.33;;;35.70;27.40;;;;;;5014863;28;20395;-70
2022/03/22 09:59:04;;;;;;;6.07;5.00;;;35.40;26.60;;;;;;5014636;28;20454;-70
2022/03/22 10:01:31;;;;;;;4.20;3.80;;;35.00;26.90;;;;;;5014726;28;20407;-70
2022/03/22 10:04:05;;;;;;;4.80;4.40;;;35.30;27.40;;;;;;5014546;28;20191;-70
2022/03/22 10:06:32;;;;;;;6.93;6.27;;;35.70;27.20;;;;;;5014669;28;20900;-70
2022/03/22 10:08:58;;;;;;;7.20;5.27;;;35.80;26.30;;;;;;5014512;28;20407;-70
2022/03/22 10:11:43;;;;;;;5.50;5.00;;;35.70;25.70;;;;;;5014390;28;20418;-70
2022/03/22 10:14:11;;;;;;;6.07;4.17;;;36.10;26.80;;;;;;5014352;28;20455;-70
2022/03/22 10:16:48;;;;;;;3.97;3.50;;;36.60;26.60;;;;;;5013298;28;20502;-70
2022/03/22 10:19:24;;;;;;;4.60;4.20;;;37.30;26.60;;;;;;5014151;28;20788;-70
2022/03/22 10:21:50;;;;;;;5.20;4.57;;;37.60;26.10;;;;;;5013030;28;20414;-70
2022/03/22 10:24:15;;;;;;;6.30;5.70;;;38.20;26.50;;;;;;5014238;28;20482;-70
2022/03/22 10:26:46;;;;;;;4.50;4.10;;;38.70;25.90;;;;;;5014220;28;20407;-70
2022/03/22 10:29:13;;;;;;;5.07;4.20;;;39.10;25.80;;;;;;5013910;28;20156;-70
2022/03/22 10:31:40;;;;;;;6.63;4.13;;;39.80;25.40;;;;;;5014137;28;20406;-70
2022/03/22 10:34:07;;;;;;;3.47;3.17;;;40.50;25.20;;;;;;5014029;28;20510;-70
2022/03/22 10:36:35;;;;;;;7.00;5.80;;;41.10;25.20;;;;;;5014074;28;20932;-70
2022/03/22 10:39:03;;;;;;;4.70;4.27;;;41.70;24.40;;;;;;5013862;28;20753;-70
2022/03/22 10:41:31;;;;;;;3.60;3.07;;;42.20;23.80;;;;;;5013857;28;20431;-70
2022/03/22 10:44:23;;;;;;;3.93;3.60;;;42.70;23.80;;;;;;5013665;28;20465;-70
2022/03/22 10:46:49;;;;;;;4.00;3.70;;;43.00;22.90;;;;;;5013458;28;20422;-70
2022/03/22 10:49:16;;;;;;;3.90;3.60;;;43.30;23.00;;;;;;5013563;28;20374;-70
2022/03/22 10:51:47;;;;;;;4.50;3.87;;;43.60;23.10;;;;;;5011885;28;20255;-70
2022/03/22 10:54:16;;;;;;;4.07;3.70;;;43.40;22.30;;;;;;5013479;28;20497;-70
2022/03/22 10:56:46;;;;;;;5.03;4.53;;;43.40;22.30;;;;;;5012423;28;20419;-70
2022/03/22 10:59:14;;;;;;;4.03;3.60;;;43.70;22.20;;;;;;5013287;28;20879;-70
2022/03/22 11:01:44;;;;;;;3.47;3.17;;;44.30;22.50;;;;;;5013506;28;20411;-70
2022/03/22 11:04:11;;;;;;;3.83;3.00;;;44.90;22.20;;;;;;5013401;28;20457;-70
2022/03/22 11:06:38;;;;;;;4.40;3.90;;;44.80;21.60;;;;;;5013577;28;20378;-70
2022/03/22 11:09:06;;;;;;;3.00;2.70;;;44.80;21.90;;;;;;5013379;28;20428;-70
2022/03/22 11:11:32;;;;;;;6.80;4.20;;;45.40;21.70;;;;;;5013452;28;20437;-70
2022/03/22 11:13:59;;;;;;;4.40;3.73;;;45.80;21.50;;;;;;5012982;28;20819;-70
2022/03/22 11:16:29;;;;;;;4.80;4.07;;;45.90;21.60;;;;;;5013315;28;20381;-70
2022/03/22 11:18:59;;;;;;;3.00;2.77;;;46.20;21.30;;;;;;5013368;28;20473;-70
2022/03/22 11:21:25;;;;;;;3.40;3.10;;;47.00;22.40;;;;;;5011707;28;20389;-71
2022/03/22 11:24:02;;;;;;;4.30;4.00;;;47.90;21.90;;;;;;5012740;28;20457;-71
2022/03/22 11:26:27;;;;;;;4.20;3.80;;;48.20;21.10;;;;;;5013185;28;20414;-70
2022/03/22 11:28:53;;;;;;;4.40;4.10;;;48.20;20.50;;;;;;5013464;28;20407;-71
2022/03/22 11:31:21;;;;;;;3.93;3.50;;;48.50;20.70;;;;;;5012840;28;20179;-71
2022/03/22 11:36:40;;;;;;;3.10;2.80;;;48.90;20.90;;;;;;5013304;28;20385;-71
2022/03/22 11:39:07;;;;;;;3.50;3.20;;;50.00;21.10;;;;;;5012855;28;20413;-71
2022/03/22 11:44:36;;;;;;;4.23;3.83;;;51.50;20.80;;;;;;5012676;28;20497;-71
2022/03/22 11:47:03;;;;;;;6.07;4.33;;;52.30;20.50;;;;;;5012785;28;20386;-71
2022/03/22 11:49:29;;;;;;;2.90;2.70;;;52.70;20.40;;;;;;5012501;28;20374;-71
2022/03/22 11:52:11;;;;;;;2.90;2.70;;;53.30;20.40;;;;;;5012651;28;20456;-71
2022/03/22 11:54:37;;;;;;;4.13;3.83;;;53.80;19.90;;;;;;5012429;28;20424;-71
2022/03/22 11:57:05;;;;;;;4.80;4.40;;;54.30;20.20;;;;;;5012542;28;20415;-71
2022/03/22 11:59:42;;;;;;;3.60;3.40;;;54.70;19.70;;;;;;5012301;28;20432;-71
2022/03/22 12:02:15;;;;;;;6.70;3.90;;;54.70;19.60;;;;;;5011868;28;20378;-71
2022/03/22 12:04:42;;;;;;;3.10;2.90;;;54.90;19.50;;;;;;5012320;28;20402;-71
2022/03/22 12:07:11;;;;;;;3.43;3.23;;;55.20;19.70;;;;;;5012473;28;20396;-71
2022/03/22 12:09:42;;;;;;;3.53;3.33;;;55.40;19.50;;;;;;5012232;28;20378;-71
2022/03/22 12:12:09;;;;;;;3.53;3.23;;;55.50;19.50;;;;;;5012407;28;20381;-71
2022/03/22 12:14:36;;;;;;;4.63;4.23;;;55.10;19.50;;;;;;5012279;28;20441;-71
2022/03/22 12:17:03;;;;;;;4.33;4.00;;;54.60;19.50;;;;;;5012270;28;20396;-71
2022/03/22 12:19:31;;;;;;;4.30;3.90;;;54.40;19.20;;;;;;5012106;28;21112;-71
2022/03/22 12:21:58;;;;;;;3.70;3.50;;;54.50;19.30;;;;;;5012260;28;20743;-71
2022/03/22 12:24:27;;;;;;;3.33;3.03;;;54.30;19.20;;;;;;5012140;28;20602;-71
2022/03/22 12:26:56;;;;;;;3.60;3.27;;;54.70;19.60;;;;;;5012180;28;20393;-71
2022/03/22 12:29:21;;;;;;;3.63;3.37;;;55.00;19.40;;;;;;5011874;28;20386;-71
2022/03/22 12:31:51;;;;;;;3.70;3.40;;;55.20;19.40;;;;;;5012173;28;20385;-71
2022/03/22 12:34:17;;;;;;;3.63;3.40;;;55.10;19.70;;;;;;5012051;28;20188;-71
2022/03/22 12:36:44;;;;;;;4.60;4.20;;;55.10;19.20;;;;;;5012214;28;20411;-71
2022/03/22 12:39:09;;;;;;;3.77;3.50;;;54.70;19.00;;;;;;5012050;28;20399;-71
2022/03/22 12:41:35;;;;;;;3.17;2.97;;;54.20;19.10;;;;;;5011970;28;20404;-71
2022/03/22 12:44:01;;;;;;;3.83;3.53;;;53.40;19.10;;;;;;5011897;28;20258;-71
2022/03/22 12:46:28;;;;;;;3.40;3.10;;;52.90;19.10;;;;;;5012061;28;20168;-71
2022/03/22 12:48:55;;;;;;;3.83;3.63;;;52.70;19.10;;;;;;5012082;28;20386;-71
2022/03/22 12:51:21;;;;;;;2.93;2.73;;;52.10;19.10;;;;;;5011806;28;20772;-71
2022/03/22 12:53:47;;;;;;;3.87;3.30;;;52.30;19.40;;;;;;5011914;28;20396;-71
2022/03/22 12:56:17;;;;;;;3.20;3.00;;;51.40;18.80;;;;;;5011940;28;20415;-71
2022/03/22 12:58:42;;;;;;;3.57;3.27;;;51.10;19.10;;;;;;5011507;28;20653;-71
2022/03/22 13:01:08;;;;;;;2.57;2.33;;;51.10;19.20;;;;;;5011611;28;20429;-71
2022/03/22 13:03:35;;;;;;;3.17;2.97;;;51.60;19.10;;;;;;5011686;28;20684;-71
2022/03/22 13:06:01;;;;;;;4.60;4.23;;;52.40;19.60;;;;;;5011879;28;20160;-71
2022/03/22 13:11:26;;;;;;;3.97;2.83;;;52.50;19.20;;;;;;5011712;28;20545;-71
2022/03/22 13:11:27;;;;;;;3.27;2.97;;;52.80;18.90;;;;;;5011636;28;20409;-71
2022/03/22 13:16:38;;;;;;;3.80;3.50;;;52.90;19.00;;;;;;5015561;28;20465;-71
2022/03/22 13:19:06;;;;;;;4.07;3.10;;;53.10;18.90;;;;;;5015480;28;20384;-71
2022/03/22 13:21:34;;;;;;;4.30;3.90;;;53.00;18.60;;;;;;5015307;28;20381;-71
2022/03/22 13:24:12;;;;;;;3.43;3.13;;;52.90;18.60;;;;;;5015070;28;20433;-71
2022/03/22 13:26:50;;;;;;;2.90;2.70;;;53.40;18.90;;;;;;5015289;28;20410;-71
2022/03/22 13:29:18;;;;;;;4.07;3.53;;;54.20;19.20;;;;;;5015261;28;20399;-71
2022/03/22 13:31:55;;;;;;;4.80;3.13;;;55.00;18.90;;;;;;5015303;28;20490;-71